Time;durP1;ratioP1;P1;durP2;ratioP2;P2;SDS_P1;SDS_P2;PMS_P1;PMS_P2;Temp;Humidity;BMP_temperature;BMP_pressure;BME280_temperature;BME280_humidity;BME280_pressure;Samples;Min_cycle;Max_cycle;Signal;HPM_P1;HPM_P2
2022/08/13 00:01:37;;;;;;;1.67;0.82;;;;;;;;;;5029548;28;20044;-86
2022/08/13 00:04:26;;;;;;;1.40;0.70;;;;;;;;;;5005386;28;20045;-85
2022/08/13 00:07:12;;;;;;;1.27;0.90;;;;;;;;;;5019233;28;20045;-85
2022/08/13 00:09:58;;;;;;;2.78;1.13;;;;;;;;;;5016514;28;20053;-86
2022/08/13 00:13:03;;;;;;;2.78;1.15;;;;;;;;;;5017428;28;20573;-85
2022/08/13 00:15:49;;;;;;;2.20;0.65;;;;;;;;;;5029740;28;20037;-86
2022/08/13 00:18:38;;;;;;;1.50;1.00;;;;;;;;;;5029357;28;20250;-85
2022/08/13 00:21:25;;;;;;;2.25;0.95;;;;;;;;;;5016967;28;20488;-85
2022/08/13 00:24:11;;;;;;;2.38;1.10;;;;;;;;;;5017376;28;20737;-84
2022/08/13 00:26:59;;;;;;;2.72;1.08;;;;;;;;;;5004632;28;20120;-85
2022/08/13 00:29:45;;;;;;;3.00;1.08;;;;;;;;;;5029466;28;20041;-85
2022/08/13 00:32:31;;;;;;;1.92;0.63;;;;;;;;;;5016391;28;20179;-85
2022/08/13 00:35:18;;;;;;;2.70;1.25;;;;;;;;;;5016908;28;20095;-85
2022/08/13 00:38:07;;;;;;;2.05;0.90;;;;;;;;;;5016255;28;20045;-85
2022/08/13 00:40:57;;;;;;;2.63;1.35;;;;;;;;;;5028634;28;20111;-85
2022/08/13 00:43:43;;;;;;;2.08;0.82;;;;;;;;;;5029238;28;20041;-85
2022/08/13 00:46:29;;;;;;;2.22;1.05;;;;;;;;;;5030323;28;20034;-85
2022/08/13 00:49:14;;;;;;;2.15;1.02;;;;;;;;;;5016833;28;20038;-84
2022/08/13 00:52:01;;;;;;;2.45;0.75;;;;;;;;;;5028865;28;20042;-85
2022/08/13 00:54:48;;;;;;;1.63;0.70;;;;;;;;;;5015494;28;20104;-84
2022/08/13 00:57:34;;;;;;;3.38;1.42;;;;;;;;;;5005101;28;20030;-85
2022/08/13 01:00:21;;;;;;;1.35;0.70;;;;;;;;;;5015819;28;20046;-85
2022/08/13 01:03:08;;;;;;;2.95;0.93;;;;;;;;;;5017728;28;20038;-85
2022/08/13 01:05:59;;;;;;;1.20;0.63;;;;;;;;;;5020668;28;20526;-84
2022/08/13 01:08:46;;;;;;;1.60;0.70;;;;;;;;;;5009510;28;20347;-85
2022/08/13 01:11:32;;;;;;;2.03;0.75;;;;;;;;;;5019876;28;20856;-85
2022/08/13 01:14:18;;;;;;;1.65;0.90;;;;;;;;;;5032797;28;20042;-85
2022/08/13 01:17:04;;;;;;;2.20;0.77;;;;;;;;;;5020888;28;20129;-85
2022/08/13 01:19:50;;;;;;;2.03;0.60;;;;;;;;;;5007180;28;20125;-85
2022/08/13 01:22:36;;;;;;;1.48;1.05;;;;;;;;;;5007832;28;20041;-86
2022/08/13 01:25:23;;;;;;;1.33;0.63;;;;;;;;;;5032394;28;20597;-84
2022/08/13 01:28:09;;;;;;;1.30;0.80;;;;;;;;;;5021777;28;20040;-85
2022/08/13 01:31:04;;;;;;;1.88;0.80;;;;;;;;;;5032126;28;20061;-85
2022/08/13 01:33:59;;;;;;;2.60;0.80;;;;;;;;;;5021199;28;20482;-85
2022/08/13 01:36:46;;;;;;;1.65;0.52;;;;;;;;;;5021257;28;20084;-84
2022/08/13 01:39:32;;;;;;;2.05;0.85;;;;;;;;;;5032135;28;20678;-84
2022/08/13 01:42:20;;;;;;;1.85;0.85;;;;;;;;;;5019800;28;20053;-84
2022/08/13 01:45:06;;;;;;;0.98;0.60;;;;;;;;;;5019830;28;20041;-85
2022/08/13 01:50:56;;;;;;;1.67;0.85;;;;;;;;;;5032938;28;20042;-85
2022/08/13 01:53:43;;;;;;;1.05;0.60;;;;;;;;;;5033324;28;20056;-84
2022/08/13 01:56:30;;;;;;;1.80;0.63;;;;;;;;;;5018738;28;20033;-84
2022/08/13 01:59:16;;;;;;;1.20;0.60;;;;;;;;;;5019538;28;20071;-84
2022/08/13 02:02:02;;;;;;;1.73;0.70;;;;;;;;;;5031293;28;20041;-85
2022/08/13 02:04:48;;;;;;;1.70;0.98;;;;;;;;;;5031677;28;20038;-85
2022/08/13 02:07:34;;;;;;;1.33;0.60;;;;;;;;;;5031524;28;20411;-85
2022/08/13 02:10:20;;;;;;;2.13;0.75;;;;;;;;;;5031752;28;20415;-85
2022/08/13 02:13:11;;;;;;;1.83;0.85;;;;;;;;;;5034585;28;20069;-85
2022/08/13 02:15:57;;;;;;;2.22;0.65;;;;;;;;;;5030851;28;20057;-84
2022/08/13 02:18:43;;;;;;;1.58;0.80;;;;;;;;;;5031321;28;20128;-85
2022/08/13 02:21:36;;;;;;;2.50;0.80;;;;;;;;;;5020446;28;20049;-84
2022/08/13 02:24:23;;;;;;;2.20;0.68;;;;;;;;;;5019079;28;20044;-85
2022/08/13 02:27:11;;;;;;;2.05;0.70;;;;;;;;;;5031006;28;20033;-84
2022/08/13 02:29:59;;;;;;;1.08;0.70;;;;;;;;;;5031324;28;20044;-85
2022/08/13 02:32:45;;;;;;;1.10;0.65;;;;;;;;;;5034009;28;20519;-85
2022/08/13 02:35:33;;;;;;;2.45;0.90;;;;;;;;;;5006707;28;20500;-84
2022/08/13 02:38:18;;;;;;;1.45;0.70;;;;;;;;;;5020195;28;20084;-84
2022/08/13 02:44:13;;;;;;;1.77;0.68;;;;;;;;;;5032772;28;20033;-84
2022/08/13 02:46:59;;;;;;;2.13;0.75;;;;;;;;;;5030855;28;20094;-85
2022/08/13 02:49:45;;;;;;;1.48;0.80;;;;;;;;;;5006390;28;20034;-84
2022/08/13 02:52:30;;;;;;;1.50;0.80;;;;;;;;;;5019822;28;20045;-85
2022/08/13 02:55:19;;;;;;;1.02;0.50;;;;;;;;;;5018376;28;20029;-85
2022/08/13 02:58:04;;;;;;;1.10;0.63;;;;;;;;;;5019669;28;20084;-84
2022/08/13 03:00:51;;;;;;;1.30;0.65;;;;;;;;;;5030357;28;20120;-84
2022/08/13 03:03:37;;;;;;;1.63;0.88;;;;;;;;;;5031687;28;20057;-85
2022/08/13 03:06:24;;;;;;;2.45;0.80;;;;;;;;;;5030185;28;20029;-84
2022/08/13 03:09:10;;;;;;;1.77;0.60;;;;;;;;;;5030758;28;20439;-84
2022/08/13 03:12:00;;;;;;;2.00;0.70;;;;;;;;;;5017187;28;20522;-85
2022/08/13 03:14:45;;;;;;;2.20;0.70;;;;;;;;;;5029877;28;20048;-85
2022/08/13 03:17:31;;;;;;;2.35;1.08;;;;;;;;;;5030050;28;20033;-85
2022/08/13 03:20:17;;;;;;;1.50;0.70;;;;;;;;;;5018192;28;20099;-84
2022/08/13 03:23:03;;;;;;;2.28;0.70;;;;;;;;;;5029858;28;20128;-84
2022/08/13 03:25:49;;;;;;;1.80;0.70;;;;;;;;;;5030497;28;20529;-84
2022/08/13 03:28:34;;;;;;;1.90;0.77;;;;;;;;;;5029657;28;20044;-85
2022/08/13 03:31:21;;;;;;;1.58;0.90;;;;;;;;;;5030991;28;20045;-85
2022/08/13 03:34:07;;;;;;;2.45;1.30;;;;;;;;;;5029976;28;20507;-85
2022/08/13 03:36:53;;;;;;;1.50;0.80;;;;;;;;;;5017882;28;20041;-85
2022/08/13 03:39:39;;;;;;;1.45;0.75;;;;;;;;;;5017061;28;20484;-85
2022/08/13 03:42:25;;;;;;;2.33;0.60;;;;;;;;;;5029875;28;20136;-85
2022/08/13 03:45:10;;;;;;;1.38;0.95;;;;;;;;;;5029434;28;20029;-84
2022/08/13 03:47:56;;;;;;;1.33;0.60;;;;;;;;;;5018942;28;20048;-85
2022/08/13 03:50:43;;;;;;;2.25;1.17;;;;;;;;;;5017652;28;20041;-84
2022/08/13 03:53:29;;;;;;;4.20;0.70;;;;;;;;;;5005011;28;20124;-85
2022/08/13 03:56:15;;;;;;;1.35;0.90;;;;;;;;;;5029834;28;20030;-85
2022/08/13 03:59:01;;;;;;;2.35;0.80;;;;;;;;;;5016457;28;20037;-85
2022/08/13 04:01:50;;;;;;;3.00;0.88;;;;;;;;;;5017375;28;20048;-84
2022/08/13 04:04:36;;;;;;;2.72;0.80;;;;;;;;;;5018783;28;20412;-85
2022/08/13 04:07:22;;;;;;;1.90;0.70;;;;;;;;;;5004572;28;20049;-83
2022/08/13 04:10:08;;;;;;;1.80;0.65;;;;;;;;;;5029222;28;20041;-85
2022/08/13 04:12:54;;;;;;;2.03;0.93;;;;;;;;;;5030995;28;20037;-84
2022/08/13 04:15:42;;;;;;;1.98;1.00;;;;;;;;;;5004989;28;20029;-85
2022/08/13 04:18:27;;;;;;;2.17;1.02;;;;;;;;;;5017437;28;20041;-85
2022/08/13 04:21:15;;;;;;;1.35;0.60;;;;;;;;;;5030777;28;20393;-85
2022/08/13 04:24:04;;;;;;;1.45;0.60;;;;;;;;;;5029050;28;20037;-85
2022/08/13 04:26:49;;;;;;;2.05;0.90;;;;;;;;;;5028831;28;20041;-84
2022/08/13 04:29:36;;;;;;;1.40;0.75;;;;;;;;;;5029185;28;20123;-85
2022/08/13 04:32:23;;;;;;;1.85;0.60;;;;;;;;;;5029250;28;20052;-84
2022/08/13 04:35:09;;;;;;;2.15;0.75;;;;;;;;;;5029141;28;20132;-84
2022/08/13 04:37:57;;;;;;;3.45;1.02;;;;;;;;;;5003724;28;20038;-84
2022/08/13 04:40:43;;;;;;;1.08;0.63;;;;;;;;;;5034370;28;20076;-85
2022/08/13 04:43:29;;;;;;;0.90;0.52;;;;;;;;;;5023509;28;20037;-84
2022/08/13 04:46:15;;;;;;;1.73;0.77;;;;;;;;;;5036010;28;20041;-84
2022/08/13 04:49:01;;;;;;;1.90;0.80;;;;;;;;;;5022887;28;20059;-85
2022/08/13 04:51:46;;;;;;;1.50;0.75;;;;;;;;;;5035199;28;20637;-84
2022/08/13 04:54:32;;;;;;;2.67;0.93;;;;;;;;;;5010776;28;20580;-84
2022/08/13 04:57:18;;;;;;;0.90;0.50;;;;;;;;;;5022941;28;20045;-84
2022/08/13 05:00:07;;;;;;;1.25;0.68;;;;;;;;;;5035347;28;20034;-84
2022/08/13 05:02:53;;;;;;;1.40;0.80;;;;;;;;;;5036017;28;20088;-84
2022/08/13 05:05:40;;;;;;;1.75;1.00;;;;;;;;;;5022304;28;20100;-84
2022/08/13 05:08:26;;;;;;;2.92;0.70;;;;;;;;;;5035343;28;20594;-84
2022/08/13 05:11:12;;;;;;;2.22;0.70;;;;;;;;;;5021674;28;20049;-84
2022/08/13 05:13:58;;;;;;;1.30;0.68;;;;;;;;;;5037259;28;20045;-84
2022/08/13 05:16:44;;;;;;;1.73;0.75;;;;;;;;;;5021760;28;20072;-84
2022/08/13 05:19:30;;;;;;;1.85;0.60;;;;;;;;;;5021927;28;20033;-83
2022/08/13 05:22:16;;;;;;;1.35;0.85;;;;;;;;;;5036638;28;20038;-84
2022/08/13 05:25:02;;;;;;;1.17;0.60;;;;;;;;;;5021248;28;20120;-84
2022/08/13 05:27:47;;;;;;;1.52;0.65;;;;;;;;;;5021932;28;20114;-84
2022/08/13 05:30:38;;;;;;;1.52;0.70;;;;;;;;;;5035170;28;20042;-84
2022/08/13 05:33:27;;;;;;;2.10;0.70;;;;;;;;;;5035331;28;20033;-83
2022/08/13 05:36:13;;;;;;;2.25;0.90;;;;;;;;;;5022969;28;20044;-84
2022/08/13 05:38:59;;;;;;;3.03;1.05;;;;;;;;;;5034546;28;20038;-84
2022/08/13 05:41:47;;;;;;;2.97;0.70;;;;;;;;;;5034931;28;20056;-83
2022/08/13 05:44:33;;;;;;;2.10;0.45;;;;;;;;;;5010984;28;20034;-84
2022/08/13 05:47:19;;;;;;;1.88;0.80;;;;;;;;;;5035045;28;20046;-84
2022/08/13 05:50:13;;;;;;;1.10;0.50;;;;;;;;;;5023093;28;20483;-84
2022/08/13 05:53:07;;;;;;;2.63;0.82;;;;;;;;;;5018729;28;20549;-84
2022/08/13 05:55:54;;;;;;;1.50;0.70;;;;;;;;;;5021138;28;20048;-84
2022/08/13 05:58:39;;;;;;;1.80;0.65;;;;;;;;;;5031492;28;20128;-84
2022/08/13 06:04:29;;;;;;;1.75;0.70;;;;;;;;;;5034405;28;20484;-84
2022/08/13 06:07:18;;;;;;;1.70;0.80;;;;;;;;;;5020425;28;20045;-84
2022/08/13 06:10:04;;;;;;;1.58;0.70;;;;;;;;;;5018781;28;20128;-84
2022/08/13 06:12:50;;;;;;;1.45;0.80;;;;;;;;;;5018707;28;20038;-84
2022/08/13 06:15:36;;;;;;;1.17;0.57;;;;;;;;;;5032560;28;20512;-84
2022/08/13 06:18:24;;;;;;;1.35;0.63;;;;;;;;;;5018796;28;20530;-84
2022/08/13 06:21:12;;;;;;;1.77;0.85;;;;;;;;;;5031053;28;20613;-85
2022/08/13 06:23:57;;;;;;;1.38;0.70;;;;;;;;;;5030531;28;20496;-85
2022/08/13 06:26:43;;;;;;;2.22;0.80;;;;;;;;;;5031429;28;20037;-85
2022/08/13 06:29:29;;;;;;;1.92;0.77;;;;;;;;;;5031504;28;20095;-85
2022/08/13 06:32:15;;;;;;;1.63;0.63;;;;;;;;;;5031054;28;20034;-85
2022/08/13 06:35:01;;;;;;;1.05;0.60;;;;;;;;;;5031544;28;20033;-85
2022/08/13 06:37:46;;;;;;;2.08;0.73;;;;;;;;;;5031782;28;20495;-85
2022/08/13 06:40:35;;;;;;;1.00;0.50;;;;;;;;;;5030722;28;20474;-85
2022/08/13 06:43:21;;;;;;;2.05;0.70;;;;;;;;;;5030838;28;20049;-84
2022/08/13 06:46:07;;;;;;;1.35;0.68;;;;;;;;;;5031009;28;20041;-86
2022/08/13 06:48:55;;;;;;;1.65;0.70;;;;;;;;;;5030993;28;20056;-84
2022/08/13 06:51:41;;;;;;;1.27;0.65;;;;;;;;;;5006272;28;20121;-85
2022/08/13 06:54:27;;;;;;;1.52;0.70;;;;;;;;;;5030447;28;20075;-85
2022/08/13 06:57:12;;;;;;;1.58;0.68;;;;;;;;;;5019706;28;20029;-84
2022/08/13 06:59:58;;;;;;;1.90;0.75;;;;;;;;;;5006262;28;20045;-85
2022/08/13 07:02:44;;;;;;;1.63;0.73;;;;;;;;;;5005752;28;20423;-85
2022/08/13 07:05:38;;;;;;;1.05;0.68;;;;;;;;;;5018647;28;20455;-85
2022/08/13 07:08:28;;;;;;;1.42;0.57;;;;;;;;;;5006019;28;20558;-85
2022/08/13 07:11:23;;;;;;;2.28;0.50;;;;;;;;;;5018360;28;20401;-85
2022/08/13 07:14:08;;;;;;;3.30;1.27;;;;;;;;;;5030148;28;20036;-85
2022/08/13 07:16:56;;;;;;;1.42;0.60;;;;;;;;;;5017259;28;20045;-85
2022/08/13 07:19:42;;;;;;;2.10;0.70;;;;;;;;;;5030034;28;20068;-85
2022/08/13 07:22:28;;;;;;;1.33;0.50;;;;;;;;;;5016682;28;20033;-85
2022/08/13 07:25:13;;;;;;;1.20;0.50;;;;;;;;;;5031705;28;20041;-85
2022/08/13 07:27:59;;;;;;;1.25;0.50;;;;;;;;;;5031291;28;20496;-84
2022/08/13 07:30:45;;;;;;;1.08;0.55;;;;;;;;;;5030268;28;20045;-84
2022/08/13 07:33:35;;;;;;;1.33;0.52;;;;;;;;;;5005309;28;20034;-85
2022/08/13 07:36:23;;;;;;;1.55;0.60;;;;;;;;;;5029578;28;20033;-84
2022/08/13 07:39:10;;;;;;;2.38;0.82;;;;;;;;;;5031803;28;20067;-85
2022/08/13 07:41:56;;;;;;;0.93;0.47;;;;;;;;;;5005469;28;20049;-85
2022/08/13 07:44:42;;;;;;;1.35;0.50;;;;;;;;;;5017717;28;20048;-83
2022/08/13 07:47:29;;;;;;;1.08;0.50;;;;;;;;;;5030963;28;20060;-85
2022/08/13 07:50:15;;;;;;;1.33;0.60;;;;;;;;;;5016630;28;20045;-84
2022/08/13 07:53:01;;;;;;;2.38;0.75;;;;;;;;;;5029338;28;20041;-85
2022/08/13 07:55:47;;;;;;;2.03;0.70;;;;;;;;;;5018565;28;20033;-85
2022/08/13 07:58:33;;;;;;;0.90;0.22;;;;;;;;;;5005127;28;20047;-84
2022/08/13 08:01:19;;;;;;;0.80;0.50;;;;;;;;;;5029364;28;20515;-85
2022/08/13 08:04:06;;;;;;;1.00;0.40;;;;;;;;;;5016159;28;20041;-85
2022/08/13 08:06:52;;;;;;;1.08;0.45;;;;;;;;;;5005027;28;20030;-85
2022/08/13 08:09:37;;;;;;;1.10;0.40;;;;;;;;;;5018165;28;20057;-84
2022/08/13 08:12:35;;;;;;;1.23;0.47;;;;;;;;;;5016408;28;20053;-84
2022/08/13 08:15:22;;;;;;;1.60;0.80;;;;;;;;;;5017973;28;20033;-85
2022/08/13 08:18:08;;;;;;;2.78;0.68;;;;;;;;;;5028934;28;20414;-85
2022/08/13 08:21:08;;;;;;;1.52;0.68;;;;;;;;;;5015993;28;20034;-84
2022/08/13 08:23:59;;;;;;;1.23;0.60;;;;;;;;;;5016337;28;20037;-85
2022/08/13 08:26:48;;;;;;;0.53;0.30;;;;;;;;;;5005642;28;20034;-85
2022/08/13 08:29:34;;;;;;;1.23;0.50;;;;;;;;;;5016814;28;20261;-85
2022/08/13 08:32:19;;;;;;;0.35;0.20;;;;;;;;;;5028555;28;20038;-85
2022/08/13 08:35:05;;;;;;;3.60;0.50;;;;;;;;;;5004593;28;20491;-85
2022/08/13 08:44:07;;;;;;;5.50;0.60;;;;;;;;;;5019465;28;20453;-85
2022/08/13 08:46:56;;;;;;;1.00;0.50;;;;;;;;;;5016862;28;20041;-84
2022/08/13 08:49:43;;;;;;;1.13;0.57;;;;;;;;;;5029691;28;20045;-85
2022/08/13 08:55:36;;;;;;;1.15;0.85;;;;;;;;;;5020709;28;20095;-85
2022/08/13 08:58:22;;;;;;;0.88;0.40;;;;;;;;;;5016243;28;20037;-85
2022/08/13 09:01:10;;;;;;;0.60;0.30;;;;;;;;;;5003234;28;20038;-84
2022/08/13 09:03:56;;;;;;;0.68;0.40;;;;;;;;;;5028716;28;20045;-85
2022/08/13 09:06:42;;;;;;;0.93;0.50;;;;;;;;;;5030183;28;20038;-85
2022/08/13 09:09:28;;;;;;;1.20;0.50;;;;;;;;;;5030091;28;20574;-85
2022/08/13 09:12:13;;;;;;;1.10;0.50;;;;;;;;;;5014725;28;20523;-84
2022/08/13 09:14:59;;;;;;;1.15;0.40;;;;;;;;;;5004006;28;20046;-84
2022/08/13 09:17:45;;;;;;;0.50;0.20;;;;;;;;;;5003777;28;20033;-85
2022/08/13 09:20:33;;;;;;;0.73;0.30;;;;;;;;;;5017393;28;20045;-84
2022/08/13 09:23:20;;;;;;;0.63;0.32;;;;;;;;;;5015723;28;20036;-85
2022/08/13 09:26:06;;;;;;;1.08;0.40;;;;;;;;;;5017175;28;20048;-85
2022/08/13 09:28:56;;;;;;;3.08;0.60;;;;;;;;;;5019316;28;20055;-84
2022/08/13 09:31:43;;;;;;;0.70;0.40;;;;;;;;;;5021637;28;20043;-85
2022/08/13 09:34:29;;;;;;;0.90;0.40;;;;;;;;;;5007822;28;20034;-84
2022/08/13 09:37:14;;;;;;;0.80;0.47;;;;;;;;;;5018075;28;20414;-82
2022/08/13 09:40:06;;;;;;;0.90;0.60;;;;;;;;;;5020309;28;20095;-84
2022/08/13 09:43:02;;;;;;;0.73;0.35;;;;;;;;;;5033294;28;20209;-86
2022/08/13 09:45:48;;;;;;;0.60;0.30;;;;;;;;;;5019721;28;20037;-84
2022/08/13 09:48:34;;;;;;;0.63;0.30;;;;;;;;;;5020833;28;20492;-82
2022/08/13 09:51:21;;;;;;;0.45;0.25;;;;;;;;;;5032202;28;20037;-83
2022/08/13 09:54:11;;;;;;;1.15;0.40;;;;;;;;;;5007638;28;20056;-85
2022/08/13 09:56:58;;;;;;;1.55;0.20;;;;;;;;;;5019206;28;20030;-82
2022/08/13 09:59:43;;;;;;;0.32;0.20;;;;;;;;;;5019486;28;20037;-86
2022/08/13 10:02:31;;;;;;;1.20;0.45;;;;;;;;;;5020699;28;20534;-85
2022/08/13 10:05:18;;;;;;;1.05;0.40;;;;;;;;;;5018383;28;20038;-86
2022/08/13 10:08:05;;;;;;;1.00;0.40;;;;;;;;;;5031357;28;20037;-83
2022/08/13 10:10:51;;;;;;;1.30;0.68;;;;;;;;;;5032605;28;20041;-85
2022/08/13 10:13:37;;;;;;;0.63;0.28;;;;;;;;;;5031822;28;20042;-84
2022/08/13 10:16:23;;;;;;;0.68;0.40;;;;;;;;;;5032771;28;20033;-85
2022/08/13 10:19:08;;;;;;;1.27;0.43;;;;;;;;;;5018014;28;20044;-85
2022/08/13 10:21:55;;;;;;;0.90;0.40;;;;;;;;;;5018111;28;20042;-85
2022/08/13 10:24:40;;;;;;;1.23;0.20;;;;;;;;;;5017670;28;20041;-83
2022/08/13 10:27:26;;;;;;;1.00;0.57;;;;;;;;;;5019071;28;20504;-82
2022/08/13 10:30:12;;;;;;;0.82;0.40;;;;;;;;;;5018750;28;20511;-84
2022/08/13 10:32:58;;;;;;;0.80;0.30;;;;;;;;;;5006308;28;20120;-84
2022/08/13 10:35:44;;;;;;;1.63;0.35;;;;;;;;;;5006421;28;20099;-85
2022/08/13 10:38:30;;;;;;;0.68;0.30;;;;;;;;;;5019107;28;20427;-85
2022/08/13 10:41:16;;;;;;;1.05;0.28;;;;;;;;;;5017082;28;20069;-85
2022/08/13 10:44:02;;;;;;;0.57;0.20;;;;;;;;;;5019283;28;20037;-84
2022/08/13 10:46:48;;;;;;;1.13;0.70;;;;;;;;;;5031593;28;20037;-83
2022/08/13 10:49:34;;;;;;;0.70;0.30;;;;;;;;;;5018598;28;20033;-84
2022/08/13 10:52:20;;;;;;;1.13;0.20;;;;;;;;;;5017205;28;20063;-85
2022/08/13 10:55:08;;;;;;;0.82;0.40;;;;;;;;;;5019692;28;20041;-84
2022/08/13 10:57:53;;;;;;;1.00;0.40;;;;;;;;;;5017702;28;20044;-84
2022/08/13 11:00:39;;;;;;;0.35;0.20;;;;;;;;;;5030696;28;20045;-83
2022/08/13 11:03:25;;;;;;;0.32;0.17;;;;;;;;;;5030971;28;20042;-84
2022/08/13 11:06:11;;;;;;;0.75;0.22;;;;;;;;;;5033178;28;20040;-84
2022/08/13 11:08:59;;;;;;;0.68;0.20;;;;;;;;;;5033948;28;20124;-85
2022/08/13 11:11:44;;;;;;;0.52;0.20;;;;;;;;;;5006441;28;20132;-84
2022/08/13 11:14:30;;;;;;;0.60;0.20;;;;;;;;;;5018318;28;20042;-83
2022/08/13 11:17:17;;;;;;;0.73;0.22;;;;;;;;;;5030833;28;20041;-82
2022/08/13 11:20:06;;;;;;;0.65;0.30;;;;;;;;;;5005674;28;20037;-83
2022/08/13 11:22:53;;;;;;;0.60;0.30;;;;;;;;;;5032650;28;20471;-84
2022/08/13 11:25:38;;;;;;;0.22;0.13;;;;;;;;;;5031168;28;20045;-83
2022/08/13 11:28:24;;;;;;;0.50;0.20;;;;;;;;;;5016614;28;20042;-84
2022/08/13 11:31:10;;;;;;;0.68;0.20;;;;;;;;;;5005406;28;20049;-84
2022/08/13 11:33:56;;;;;;;0.57;0.22;;;;;;;;;;5016410;28;20038;-84
2022/08/13 11:36:42;;;;;;;0.73;0.20;;;;;;;;;;5030933;28;20041;-84
2022/08/13 11:39:30;;;;;;;0.68;0.20;;;;;;;;;;5017835;28;20045;-85
2022/08/13 11:42:16;;;;;;;1.50;0.30;;;;;;;;;;5029653;28;20049;-85
2022/08/13 11:45:04;;;;;;;1.13;0.30;;;;;;;;;;5005440;28;20042;-84
2022/08/13 11:47:49;;;;;;;0.40;0.20;;;;;;;;;;5004610;28;20048;-85
2022/08/13 11:50:35;;;;;;;0.65;0.38;;;;;;;;;;5015520;28;20052;-85
2022/08/13 11:53:21;;;;;;;0.57;0.20;;;;;;;;;;5004588;28;20051;-86
2022/08/13 11:56:07;;;;;;;0.25;0.15;;;;;;;;;;5015862;28;20099;-86
2022/08/13 11:58:54;;;;;;;0.30;0.20;;;;;;;;;;5015551;28;20139;-86
2022/08/13 12:01:40;;;;;;;0.85;0.20;;;;;;;;;;5017829;28;20046;-85
2022/08/13 12:04:26;;;;;;;0.47;0.10;;;;;;;;;;5005205;28;20066;-85
2022/08/13 12:07:12;;;;;;;0.30;0.20;;;;;;;;;;5017000;28;20044;-85
2022/08/13 12:09:57;;;;;;;0.63;0.20;;;;;;;;;;5029007;28;20041;-83
2022/08/13 12:12:44;;;;;;;0.52;0.20;;;;;;;;;;5017282;28;20044;-84
2022/08/13 12:15:29;;;;;;;0.65;0.20;;;;;;;;;;5004507;28;20037;-84
2022/08/13 12:18:16;;;;;;;0.50;0.10;;;;;;;;;;5030615;28;20103;-86
2022/08/13 12:21:02;;;;;;;0.63;0.30;;;;;;;;;;5029251;28;20556;-87
2022/08/13 12:23:48;;;;;;;0.63;0.17;;;;;;;;;;5015990;28;20408;-87
2022/08/13 12:26:33;;;;;;;0.25;0.13;;;;;;;;;;5004813;28;20030;-87
2022/08/13 12:29:19;;;;;;;0.68;0.25;;;;;;;;;;5029143;28;20485;-83
2022/08/13 12:32:05;;;;;;;0.40;0.20;;;;;;;;;;5031705;28;20034;-83
2022/08/13 12:34:51;;;;;;;1.27;0.20;;;;;;;;;;5030230;28;20092;-84
2022/08/13 12:37:39;;;;;;;0.45;0.22;;;;;;;;;;5030373;28;20044;-84
2022/08/13 12:40:25;;;;;;;0.55;0.20;;;;;;;;;;5017490;28;20128;-85
2022/08/13 12:43:11;;;;;;;0.30;0.13;;;;;;;;;;5028873;28;20034;-83
2022/08/13 12:45:57;;;;;;;0.40;0.20;;;;;;;;;;5028728;28;20491;-84
2022/08/13 12:48:43;;;;;;;0.40;0.20;;;;;;;;;;5016787;28;20041;-83
2022/08/13 12:51:29;;;;;;;0.50;0.20;;;;;;;;;;5028639;28;20578;-84
2022/08/13 12:54:16;;;;;;;0.35;0.10;;;;;;;;;;5014924;28;20033;-84
2022/08/13 12:57:02;;;;;;;0.43;0.17;;;;;;;;;;5018095;28;20037;-84
2022/08/13 12:59:48;;;;;;;0.77;0.20;;;;;;;;;;5004297;28;20419;-83
2022/08/13 13:02:34;;;;;;;0.20;0.20;;;;;;;;;;5032293;28;20454;-83
2022/08/13 13:05:20;;;;;;;1.10;0.20;;;;;;;;;;5020672;28;20124;-83
2022/08/13 13:08:35;;;;;;;0.60;0.25;;;;;;;;;;5032018;28;20033;-83
2022/08/13 13:11:20;;;;;;;2.78;0.50;;;;;;;;;;5019844;28;20037;-83
2022/08/13 13:14:07;;;;;;;0.77;0.60;;;;;;;;;;5034342;28;20049;-83
2022/08/13 13:16:53;;;;;;;0.50;0.30;;;;;;;;;;5035333;28;20134;-83
2022/08/13 13:19:39;;;;;;;0.95;0.50;;;;;;;;;;5018445;28;20049;-84
2022/08/13 13:22:25;;;;;;;1.75;0.40;;;;;;;;;;5019206;28;20488;-83
2022/08/13 13:25:11;;;;;;;0.85;0.57;;;;;;;;;;5019302;28;20037;-83
2022/08/13 13:27:56;;;;;;;1.17;0.30;;;;;;;;;;5019646;28;20045;-83
2022/08/13 13:30:44;;;;;;;1.58;0.30;;;;;;;;;;5021068;28;20049;-84
2022/08/13 13:33:31;;;;;;;2.92;0.52;;;;;;;;;;5032198;28;20119;-83
2022/08/13 13:36:17;;;;;;;2.85;1.00;;;;;;;;;;5031935;28;20427;-84
2022/08/13 13:39:02;;;;;;;2.55;0.70;;;;;;;;;;5018297;28;20045;-84
2022/08/13 13:41:49;;;;;;;1.50;0.60;;;;;;;;;;5033261;28;20049;-84
2022/08/13 13:44:34;;;;;;;1.95;0.60;;;;;;;;;;5020869;28;20044;-85
2022/08/13 13:47:20;;;;;;;8.85;1.23;;;;;;;;;;5007525;28;20042;-86
2022/08/13 13:50:12;;;;;;;2.88;0.85;;;;;;;;;;5020019;28;20108;-85
2022/08/13 13:52:58;;;;;;;4.35;0.95;;;;;;;;;;5006880;28;20077;-85
2022/08/13 13:55:44;;;;;;;2.97;1.05;;;;;;;;;;5032802;28;20038;-84
2022/08/13 13:58:31;;;;;;;5.53;1.20;;;;;;;;;;5034275;28;20041;-85
2022/08/13 14:01:18;;;;;;;2.20;0.80;;;;;;;;;;5020259;28;20040;-85
2022/08/13 14:04:04;;;;;;;5.43;0.82;;;;;;;;;;5031520;28;20038;-85
2022/08/13 14:06:49;;;;;;;2.08;0.80;;;;;;;;;;5006942;28;20060;-85
2022/08/13 14:09:35;;;;;;;2.47;0.70;;;;;;;;;;5031928;28;20420;-86
2022/08/13 14:12:21;;;;;;;5.05;1.38;;;;;;;;;;5017206;28;20037;-84
2022/08/13 14:15:07;;;;;;;2.83;0.90;;;;;;;;;;5031411;28;20095;-85
2022/08/13 14:17:56;;;;;;;2.42;0.95;;;;;;;;;;5032590;28;20041;-85
2022/08/13 14:20:44;;;;;;;2.75;0.77;;;;;;;;;;5031616;28;20045;-85
2022/08/13 14:23:30;;;;;;;1.98;0.60;;;;;;;;;;5006704;28;20527;-85
2022/08/13 14:26:16;;;;;;;2.47;1.00;;;;;;;;;;5019408;28;20043;-86
2022/08/13 14:29:02;;;;;;;2.55;0.95;;;;;;;;;;5032326;28;20033;-86
2022/08/13 14:31:47;;;;;;;2.13;0.90;;;;;;;;;;5031302;28;20133;-85
2022/08/13 14:34:34;;;;;;;1.95;0.70;;;;;;;;;;5019295;28;20037;-85
2022/08/13 14:37:20;;;;;;;3.78;1.02;;;;;;;;;;5030247;28;20072;-85
2022/08/13 14:40:08;;;;;;;2.33;0.90;;;;;;;;;;5032314;28;20038;-86
2022/08/13 14:42:55;;;;;;;2.80;1.35;;;;;;;;;;5031835;28;20412;-85
2022/08/13 14:45:44;;;;;;;2.40;1.00;;;;;;;;;;5018127;28;20030;-86
2022/08/13 14:48:31;;;;;;;2.63;0.60;;;;;;;;;;5019410;28;20045;-87
2022/08/13 14:51:17;;;;;;;6.07;0.95;;;;;;;;;;5031153;28;20042;-85
2022/08/13 14:54:03;;;;;;;2.83;1.10;;;;;;;;;;5032539;28;20107;-86
2022/08/13 14:56:49;;;;;;;2.25;1.10;;;;;;;;;;5018554;28;20125;-87
2022/08/13 14:59:35;;;;;;;2.25;0.80;;;;;;;;;;5017961;28;20037;-88
2022/08/13 15:02:20;;;;;;;2.97;1.00;;;;;;;;;;5018535;28;20046;-87
2022/08/13 15:05:07;;;;;;;4.35;0.88;;;;;;;;;;5006302;28;20038;-87
2022/08/13 15:07:54;;;;;;;1.85;0.75;;;;;;;;;;5032638;28;20042;-88
2022/08/13 15:10:41;;;;;;;2.80;0.77;;;;;;;;;;5017732;28;20038;-86
2022/08/13 15:13:26;;;;;;;2.05;0.90;;;;;;;;;;5030607;28;20041;-88
2022/08/13 15:16:12;;;;;;;122.55;14.75;;;;;;;;;;5005992;28;20077;-89
2022/08/13 15:18:58;;;;;;;27.38;4.30;;;;;;;;;;5018309;28;20045;-86
2022/08/13 15:21:45;;;;;;;8.30;1.67;;;;;;;;;;5032248;28;20041;-86
2022/08/13 15:24:32;;;;;;;17.73;1.75;;;;;;;;;;5029915;28;20128;-87
2022/08/13 15:27:38;;;;;;;5.85;1.02;;;;;;;;;;5031111;28;20033;-90
2022/08/13 15:30:35;;;;;;;6.95;1.40;;;;;;;;;;5030841;28;20088;-90
2022/08/13 15:33:22;;;;;;;3.03;1.52;;;;;;;;;;5031841;28;20064;-91
2022/08/13 15:36:13;;;;;;;2.63;0.85;;;;;;;;;;5030982;28;20423;-89
2022/08/13 15:38:59;;;;;;;4.17;1.00;;;;;;;;;;5018935;28;20131;-90
2022/08/13 15:41:44;;;;;;;4.25;1.00;;;;;;;;;;5017239;28;20330;-89
2022/08/13 15:44:30;;;;;;;2.72;0.93;;;;;;;;;;5017520;28;20042;-89
2022/08/13 15:47:17;;;;;;;3.13;1.20;;;;;;;;;;5017373;28;20472;-87
2022/08/13 15:50:03;;;;;;;3.55;1.00;;;;;;;;;;5017236;28;20038;-90
2022/08/13 15:52:50;;;;;;;1.73;0.70;;;;;;;;;;5017629;28;20033;-90
2022/08/13 15:55:36;;;;;;;2.58;1.05;;;;;;;;;;5016935;28;20041;-90
2022/08/13 15:58:21;;;;;;;4.78;0.90;;;;;;;;;;5030517;28;20450;-89
2022/08/13 16:01:07;;;;;;;1.85;0.60;;;;;;;;;;5017295;28;20056;-90
2022/08/13 16:03:54;;;;;;;5.88;1.33;;;;;;;;;;5016609;28;20523;-91
2022/08/13 16:06:40;;;;;;;2.72;0.90;;;;;;;;;;5017133;28;20030;-90
2022/08/13 16:09:25;;;;;;;3.30;1.13;;;;;;;;;;5017102;28;20039;-89
2022/08/13 16:12:14;;;;;;;4.45;1.02;;;;;;;;;;5005244;28;20058;-90
2022/08/13 16:15:03;;;;;;;4.75;1.05;;;;;;;;;;5018430;28;20562;-90
2022/08/13 16:17:49;;;;;;;3.63;1.08;;;;;;;;;;5030317;28;20502;-90
2022/08/13 16:20:40;;;;;;;1.63;0.80;;;;;;;;;;5017373;28;20488;-89
2022/08/13 16:23:26;;;;;;;2.07;0.90;;;;;;;;;;5017415;28;20038;-91
2022/08/13 16:26:12;;;;;;;4.65;0.90;;;;;;;;;;5030670;28;20739;-91
2022/08/13 16:28:57;;;;;;;4.00;1.10;;;;;;;;;;5029861;28;20508;-88
2022/08/13 16:31:44;;;;;;;2.72;0.85;;;;;;;;;;5004791;28;20144;-90
2022/08/13 16:34:31;;;;;;;3.38;0.75;;;;;;;;;;5005520;28;20033;-89
2022/08/13 16:37:19;;;;;;;3.10;1.02;;;;;;;;;;5018476;28;20115;-90
2022/08/13 16:40:06;;;;;;;2.28;0.70;;;;;;;;;;5029946;28;20397;-90
2022/08/13 16:42:52;;;;;;;3.10;0.98;;;;;;;;;;5031493;28;20124;-89
2022/08/13 16:45:41;;;;;;;2.80;0.85;;;;;;;;;;5017192;28;20043;-90
2022/08/13 16:48:29;;;;;;;1.90;0.82;;;;;;;;;;5030751;28;20053;-89
2022/08/13 16:51:16;;;;;;;2.50;0.98;;;;;;;;;;5016772;28;20118;-89
2022/08/13 16:54:02;;;;;;;2.30;0.90;;;;;;;;;;5030783;28;20060;-90
2022/08/13 16:56:48;;;;;;;1.35;0.75;;;;;;;;;;5005206;28;20037;-89
2022/08/13 16:59:34;;;;;;;1.98;0.77;;;;;;;;;;5016495;28;20045;-90